Flight Track Log - Related Links

Times and Time Zones

All times are in EDT time to prevent confusion due to time zone crossing. See the ASQ5861 flight status page for this flight to view local times or setup timezone preferences in your user account.

Time Position Orientation Groundspeed Altitude Reporting Facility
EDT Latitude Longitude Course Direction KTS MPH feet Rate Location/Type
Tue 11:27:55 PM 42.0167 -87.9167 95° East 185 213 3,000  Level Chicago TRACON
Tue 11:28:49 PM 42.0667 -87.8667 37° Northeast 228 262 4,700 2,368 Climbing Chicago TRACON
Tue 11:29:49 PM 42.0500 -87.7833 105° East 277 319 7,500 2,154 Climbing Chicago TRACON
Tue 11:32:04 PM 42.0083 -87.5411 103° East 324 373 11,700 1,622 Climbing Chicago Center
Tue 11:33:00 PM 41.9346 -87.1508 95° East  Level FlightAware Approximate
Tue 11:33:05 PM 41.9903 -87.4042 100° East 366 421 12,800  Level Chicago Center
Tue 11:34:06 PM 41.9711 -87.2575 100° East 394 453 14,200 1,574 Climbing Chicago Center
Tue 11:35:07 PM 41.9508 -87.1108 100° East 398 458 16,000 1,869 Climbing Chicago Center
Tue 11:36:08 PM 41.9472 -86.9644 92° East 399 459 18,000 1,967 Climbing Chicago Center
Tue 11:37:09 PM 41.9506 -86.8153 88° East 400 460 20,000 2,016 Climbing Chicago Center
Tue 11:38:10 PM 41.9514 -86.6606 90° East 406 467 22,100 2,016 Climbing Chicago Center
Tue 11:39:11 PM 41.9528 -86.5061 89° East 414 476 24,100 1,967 Climbing Chicago Center
Tue 11:40:12 PM 41.9542 -86.3519 89° East 413 475 26,100 1,918 Climbing Chicago Center
Tue 11:41:13 PM 41.9533 -86.1958 90° East 417 480 28,000 1,426 Climbing Chicago Center
Tue 11:42:14 PM 41.9392 -86.0444 97° East 409 471 29,000 836 Climbing Chicago Center
Tue 11:43:15 PM 41.9203 -85.8425 97° East 454 522 29,700 885 Climbing Chicago Center
Tue 11:44:16 PM 41.9039 -85.6689 97° East 466 536 30,800 1,131 Climbing Chicago Center
Tue 11:45:17 PM 41.8869 -85.4906 97° East 474 545 32,000 1,377 Climbing Chicago Center
Tue 11:46:18 PM 41.8694 -85.3117 97° East 478 550 33,600 1,426 Climbing Chicago Center
Tue 11:47:19 PM 41.8517 -85.1350 98° East 474 545 34,900 689 Climbing Chicago Center
Tue 11:48:20 PM 41.8331 -84.9531 98° East 488 562 35,000 49 Climbing Chicago Center
Tue 11:49:21 PM 41.8133 -84.7608 98° East 518 596 35,000  Level Chicago Center
Tue 11:50:22 PM 41.7969 -84.5736 97° East 507 583 35,000  Level Chicago Center
Tue 11:51:23 PM 41.7864 -84.3889 94° East 501 577 35,000  Level Chicago Center
Tue 11:52:26 PM 41.7700 -84.1833 96° East 498 573 35,000  Level Cleveland Center
Tue 11:53:26 PM 41.7569 -83.9931 95° East 504 580 35,000  Level Cleveland Center
Tue 11:54:26 PM 41.7458 -83.8061 94° East 504 580 35,000  Level Cleveland Center
Tue 11:55:26 PM 41.7322 -83.6161 95° East 504 580 35,000  Level Cleveland Center
Tue 11:56:26 PM 41.7200 -83.4375 95° East 498 573 35,000  Level Cleveland Center
Tue 11:57:26 PM 41.7058 -83.2533 96° East 493 567 35,000  Level Cleveland Center
Tue 11:58:26 PM 41.6911 -83.0692 96° East 493 567 35,000  Level Cleveland Center
Tue 11:59:26 PM 41.6761 -82.8850 96° East 498 573 35,000  Level Cleveland Center
Wed 12:00:26 AM 41.6650 -82.7150 95° East 509 586 35,000  Level Cleveland Center
Wed 12:01:26 AM 41.6494 -82.5283 96° East 509 586 35,000  Level Cleveland Center
Wed 12:02:26 AM 41.6358 -82.3419 96° East 503 579 35,000  Level Cleveland Center
Wed 12:03:26 AM 41.6219 -82.1553 96° East 503 579 35,000  Level Cleveland Center
Wed 12:04:26 AM 41.6056 -81.9689 97° East 503 579 35,000  Level Cleveland Center
Wed 12:05:26 AM 41.5869 -81.7631 97° East 503 579 35,000  Level Cleveland Center
Wed 12:06:26 AM 41.5722 -81.5711 96° East 503 579 35,000  Level Cleveland Center
Wed 12:07:26 AM 41.5547 -81.3878 97° East 503 579 35,000  Level Cleveland Center
Wed 12:08:26 AM 41.5372 -81.1989 97° East 503 579 35,000  Level Cleveland Center
Wed 12:09:26 AM 41.5194 -81.0103 97° East 503 579 35,000  Level Cleveland Center
Wed 12:10:26 AM 41.5011 -80.8244 97° East 503 579 35,000  Level Cleveland Center
Wed 12:11:26 AM 41.4867 -80.6636 97° East 503 579 35,000  Level Cleveland Center
Wed 12:12:26 AM 41.4681 -80.4833 98° East 498 573 35,000  Level Cleveland Center
Wed 12:13:26 AM 41.4511 -80.2978 97° East 503 579 35,000  Level Cleveland Center
Wed 12:14:26 AM 41.4336 -80.1150 97° East 498 573 35,000  Level Cleveland Center
Wed 12:15:26 AM 41.4119 -79.9242 99° East 492 566 35,000  Level Cleveland Center
Wed 12:16:26 AM 41.3942 -79.7472 98° East 486 559 35,000  Level Cleveland Center
Wed 12:17:26 AM 41.3783 -79.5869 97° East 486 559 35,000  Level Cleveland Center
Wed 12:18:26 AM 41.3578 -79.4075 99° East 486 559 35,000  Level Cleveland Center
Wed 12:19:26 AM 41.3369 -79.2114 98° East 486 559 35,000  Level Cleveland Center
Wed 12:20:26 AM 41.3158 -79.0294 99° East 486 559 35,000  Level Cleveland Center
Wed 12:21:26 AM 41.2989 -78.8639 98° East 491 565 35,000 -402 Level Cleveland Center
Wed 12:23:40 AM 41.2519 -78.4544 99° East 487 560 33,700 -684 Descending New York Center
Wed 12:24:39 AM 41.2317 -78.2811 99° East 481 554 32,800 -958 Descending New York Center
Wed 12:25:39 AM 41.2119 -78.1300 100° East 451 519 31,800 -934 Descending New York Center
Wed 12:26:41 AM 41.1911 -77.9622 99° East 444 511 30,900 -900 Descending New York Center
Wed 12:27:39 AM 41.1658 -77.7939 101° East 450 518 30,000 -923 Descending New York Center
Wed 12:28:38 AM 41.1281 -77.6192 106° East 469 540 29,100 -900 Descending New York Center
Wed 12:29:39 AM 41.0939 -77.4478 105° East 475 547 28,200 -927 Descending New York Center
Wed 12:30:41 AM 41.0556 -77.2789 107° East 481 554 27,200 -885 Descending New York Center
Wed 12:31:41 AM 41.0189 -77.1103 106° East 481 554 26,400 -864 Descending New York Center
Wed 12:32:39 AM 40.9819 -76.9419 106° East 481 554 25,500 -915 Descending New York Center
Wed 12:33:39 AM 40.9469 -76.7683 105° East 481 554 24,600 -885 Descending New York Center
Wed 12:34:41 AM 40.9094 -76.6031 107° East 481 554 23,700 -893 Descending New York Center
Wed 12:35:40 AM 40.8756 -76.4436 106° East 464 534 22,800 -974 Descending New York Center
Wed 12:36:38 AM 40.8425 -76.3011 107° East 443 510 21,800 -1,000 Descending New York Center
Wed 12:37:40 AM 40.8117 -76.1614 106° East 409 471 20,800 -1,918 Descending New York Center
Wed 12:38:40 AM 40.7878 -76.0417 105° East 389 448 17,900 -3,429 Descending New York Center
Wed 12:39:39 AM 40.7567 -75.8939 105° East 377 434 14,000 -3,400 Descending New York Center
Wed 12:40:40 AM 40.7283 -75.7769 108° East 377 434 11,100 -2,410 Descending New York Center
Wed 12:41:41 AM 40.6494 -75.7219 152° Southeast 287 330 9,100 -2,050 Descending New York Center
Wed 12:42:40 AM 40.5817 -75.7006 167° South 263 303 7,000 -2,154 Descending New York Center
Wed 12:43:38 AM 40.5225 -75.6692 158° South 251 289 4,900 -1,613 Descending New York Center
Wed 12:44:39 AM 40.5456 -75.6133 61° Northeast 131 151 3,800 -1,190 Descending New York Center
Wed 12:45:39 AM 40.5814 -75.5558 51° Northeast 172 198 2,500 -1,091 Descending New York Center
Wed 12:46:40 AM 40.6103 -75.5111 50° Northeast 165 190 1,600 -550 Descending New York Center
Wed 12:47:39 AM 40.6347 -75.4719 51° Northeast 149 171 1,400 3,669 Descending New York Center
Wed 12:48:41 AM 40.6633 -75.4328 46° Northeast 149 171 9,000 3,800 Climbing New York Center
Wed 12:49:39 AM 40.6900 -75.3936 48° Northeast 149 171 9,000  Level New York Center
Wed 12:50:39 AM 40.7183 -75.3544 46° Northeast 149 171 9,000  Level New York Center

Login

Don't have an account? Register now (free) for customized features, flight alerts, and more!